sensor_id;sensor_type;location;lat;lon;timestamp;temperature;humidity
8676;DHT22;4375;52.486;13.424;2023-04-22T00:01:31;12.40;99.90
8676;DHT22;4375;52.486;13.424;2023-04-22T00:03:57;12.40;99.90
8676;DHT22;4375;52.486;13.424;2023-04-22T00:06:22;12.40;99.90
8676;DHT22;4375;52.486;13.424;2023-04-22T00:08:48;12.40;99.90
8676;DHT22;4375;52.486;13.424;2023-04-22T00:11:14;12.30;99.90
8676;DHT22;4375;52.486;13.424;2023-04-22T00:13:40;12.40;99.90
8676;DHT22;4375;52.486;13.424;2023-04-22T00:16:05;12.30;99.90
8676;DHT22;4375;52.486;13.424;2023-04-22T00:18:34;12.30;99.90
8676;DHT22;4375;52.486;13.424;2023-04-22T00:21:00;12.30;99.90
8676;DHT22;4375;52.486;13.424;2023-04-22T00:23:26;12.30;99.90
8676;DHT22;4375;52.486;13.424;2023-04-22T00:25:51;12.30;99.90
8676;DHT22;4375;52.486;13.424;2023-04-22T00:28:17;12.30;99.90
8676;DHT22;4375;52.486;13.424;2023-04-22T00:30:43;12.20;99.90
8676;DHT22;4375;52.486;13.424;2023-04-22T00:33:08;12.10;99.90
8676;DHT22;4375;52.486;13.424;2023-04-22T00:35:34;12.10;99.90
8676;DHT22;4375;52.486;13.424;2023-04-22T00:38:00;12.10;99.90
8676;DHT22;4375;52.486;13.424;2023-04-22T00:40:25;12.00;99.90
8676;DHT22;4375;52.486;13.424;2023-04-22T00:42:51;12.00;99.90
8676;DHT22;4375;52.486;13.424;2023-04-22T00:45:18;12.00;99.90
8676;DHT22;4375;52.486;13.424;2023-04-22T00:47:45;12.10;99.90
8676;DHT22;4375;52.486;13.424;2023-04-22T00:50:11;12.00;99.90
8676;DHT22;4375;52.486;13.424;2023-04-22T00:52:37;11.90;99.90
8676;DHT22;4375;52.486;13.424;2023-04-22T00:55:03;11.90;99.90
8676;DHT22;4375;52.486;13.424;2023-04-22T00:57:29;11.90;99.90
8676;DHT22;4375;52.486;13.424;2023-04-22T00:59:56;11.90;99.90
8676;DHT22;4375;52.486;13.424;2023-04-22T01:02:22;11.90;99.90
8676;DHT22;4375;52.486;13.424;2023-04-22T01:04:48;11.80;99.90
8676;DHT22;4375;52.486;13.424;2023-04-22T01:07:14;11.90;99.90
8676;DHT22;4375;52.486;13.424;2023-04-22T01:09:40;11.80;99.90
8676;DHT22;4375;52.486;13.424;2023-04-22T01:12:05;11.80;99.90
8676;DHT22;4375;52.486;13.424;2023-04-22T01:14:31;11.80;99.90
8676;DHT22;4375;52.486;13.424;2023-04-22T01:16:57;11.80;99.90
8676;DHT22;4375;52.486;13.424;2023-04-22T01:19:23;11.70;99.90
8676;DHT22;4375;52.486;13.424;2023-04-22T01:21:50;11.60;99.90
8676;DHT22;4375;52.486;13.424;2023-04-22T01:24:17;11.60;99.90
8676;DHT22;4375;52.486;13.424;2023-04-22T01:26:43;11.70;99.90
8676;DHT22;4375;52.486;13.424;2023-04-22T01:29:09;11.60;99.90
8676;DHT22;4375;52.486;13.424;2023-04-22T01:31:36;11.60;99.90
8676;DHT22;4375;52.486;13.424;2023-04-22T01:34:02;11.60;99.90
8676;DHT22;4375;52.486;13.424;2023-04-22T01:36:27;11.60;99.90
8676;DHT22;4375;52.486;13.424;2023-04-22T01:38:53;11.50;99.90
8676;DHT22;4375;52.486;13.424;2023-04-22T01:41:19;11.50;99.90
8676;DHT22;4375;52.486;13.424;2023-04-22T01:43:45;11.50;99.90
8676;DHT22;4375;52.486;13.424;2023-04-22T01:46:11;11.50;99.90
8676;DHT22;4375;52.486;13.424;2023-04-22T01:48:37;11.50;99.90
8676;DHT22;4375;52.486;13.424;2023-04-22T01:51:03;11.50;99.90
8676;DHT22;4375;52.486;13.424;2023-04-22T01:53:29;11.50;99.90
8676;DHT22;4375;52.486;13.424;2023-04-22T01:55:54;11.40;99.90
8676;DHT22;4375;52.486;13.424;2023-04-22T01:58:20;11.40;99.90
8676;DHT22;4375;52.486;13.424;2023-04-22T02:00:46;11.40;99.90
8676;DHT22;4375;52.486;13.424;2023-04-22T02:03:12;11.30;99.90
8676;DHT22;4375;52.486;13.424;2023-04-22T02:05:38;11.30;99.90
8676;DHT22;4375;52.486;13.424;2023-04-22T02:08:05;11.30;99.90
8676;DHT22;4375;52.486;13.424;2023-04-22T02:10:30;11.30;99.90
8676;DHT22;4375;52.486;13.424;2023-04-22T02:12:57;11.30;99.90
8676;DHT22;4375;52.486;13.424;2023-04-22T02:15:23;11.30;99.90
8676;DHT22;4375;52.486;13.424;2023-04-22T02:17:48;11.20;99.90
8676;DHT22;4375;52.486;13.424;2023-04-22T02:20:15;11.20;99.90
8676;DHT22;4375;52.486;13.424;2023-04-22T02:22:41;11.10;99.90
8676;DHT22;4375;52.486;13.424;2023-04-22T02:25:08;11.10;99.90
8676;DHT22;4375;52.486;13.424;2023-04-22T02:27:35;11.10;99.90
8676;DHT22;4375;52.486;13.424;2023-04-22T02:30:01;11.00;99.90
8676;DHT22;4375;52.486;13.424;2023-04-22T02:32:28;11.10;99.90
8676;DHT22;4375;52.486;13.424;2023-04-22T02:34:53;11.00;99.90
8676;DHT22;4375;52.486;13.424;2023-04-22T02:37:19;11.00;99.90
8676;DHT22;4375;52.486;13.424;2023-04-22T02:39:47;10.90;99.90
8676;DHT22;4375;52.486;13.424;2023-04-22T02:42:13;10.90;99.90
8676;DHT22;4375;52.486;13.424;2023-04-22T02:44:39;10.90;99.90
8676;DHT22;4375;52.486;13.424;2023-04-22T02:47:05;10.90;99.90
8676;DHT22;4375;52.486;13.424;2023-04-22T02:49:31;10.90;99.90
8676;DHT22;4375;52.486;13.424;2023-04-22T02:51:57;10.90;99.90
8676;DHT22;4375;52.486;13.424;2023-04-22T02:54:23;10.90;99.90
8676;DHT22;4375;52.486;13.424;2023-04-22T02:56:48;10.80;99.90
8676;DHT22;4375;52.486;13.424;2023-04-22T02:59:14;10.80;99.90
8676;DHT22;4375;52.486;13.424;2023-04-22T03:01:39;10.80;99.90
8676;DHT22;4375;52.486;13.424;2023-04-22T03:04:05;10.90;99.90
8676;DHT22;4375;52.486;13.424;2023-04-22T03:06:31;10.80;99.90
8676;DHT22;4375;52.486;13.424;2023-04-22T03:08:57;10.70;99.90
8676;DHT22;4375;52.486;13.424;2023-04-22T03:11:22;10.70;99.90
8676;DHT22;4375;52.486;13.424;2023-04-22T03:13:48;10.70;99.90
8676;DHT22;4375;52.486;13.424;2023-04-22T03:16:15;10.70;99.90
8676;DHT22;4375;52.486;13.424;2023-04-22T03:18:41;10.80;99.90
8676;DHT22;4375;52.486;13.424;2023-04-22T03:21:06;10.70;99.90
8676;DHT22;4375;52.486;13.424;2023-04-22T03:23:32;10.70;99.90
8676;DHT22;4375;52.486;13.424;2023-04-22T03:25:58;10.60;99.90
8676;DHT22;4375;52.486;13.424;2023-04-22T03:28:24;10.60;99.90
8676;DHT22;4375;52.486;13.424;2023-04-22T03:30:49;10.60;99.90
8676;DHT22;4375;52.486;13.424;2023-04-22T03:33:15;10.60;99.90
8676;DHT22;4375;52.486;13.424;2023-04-22T03:35:40;10.50;99.90
8676;DHT22;4375;52.486;13.424;2023-04-22T03:38:06;10.50;99.90
8676;DHT22;4375;52.486;13.424;2023-04-22T03:40:32;10.40;99.90
8676;DHT22;4375;52.486;13.424;2023-04-22T03:42:58;10.40;99.90
8676;DHT22;4375;52.486;13.424;2023-04-22T03:45:23;10.40;99.90
8676;DHT22;4375;52.486;13.424;2023-04-22T03:47:49;10.40;99.90
8676;DHT22;4375;52.486;13.424;2023-04-22T03:50:15;10.40;99.90
8676;DHT22;4375;52.486;13.424;2023-04-22T03:52:40;10.30;99.90
8676;DHT22;4375;52.486;13.424;2023-04-22T03:55:06;10.30;99.90
8676;DHT22;4375;52.486;13.424;2023-04-22T03:57:32;10.40;99.90
8676;DHT22;4375;52.486;13.424;2023-04-22T03:59:57;10.40;99.90
8676;DHT22;4375;52.486;13.424;2023-04-22T04:02:23;10.40;99.90
8676;DHT22;4375;52.486;13.424;2023-04-22T04:04:49;10.30;99.90
8676;DHT22;4375;52.486;13.424;2023-04-22T04:07:15;10.30;99.90
8676;DHT22;4375;52.486;13.424;2023-04-22T04:09:41;10.30;99.90
8676;DHT22;4375;52.486;13.424;2023-04-22T04:12:06;10.20;99.90
8676;DHT22;4375;52.486;13.424;2023-04-22T04:14:32;10.20;99.90
8676;DHT22;4375;52.486;13.424;2023-04-22T04:16:57;10.20;99.90
8676;DHT22;4375;52.486;13.424;2023-04-22T04:19:23;10.20;99.90
8676;DHT22;4375;52.486;13.424;2023-04-22T04:21:49;10.10;99.90
8676;DHT22;4375;52.486;13.424;2023-04-22T04:24:15;10.10;99.90
8676;DHT22;4375;52.486;13.424;2023-04-22T04:26:41;10.00;99.90
8676;DHT22;4375;52.486;13.424;2023-04-22T04:29:07;10.10;99.90
8676;DHT22;4375;52.486;13.424;2023-04-22T04:31:32;10.00;99.90
8676;DHT22;4375;52.486;13.424;2023-04-22T04:33:58;10.00;99.90
8676;DHT22;4375;52.486;13.424;2023-04-22T04:36:24;10.00;99.90
8676;DHT22;4375;52.486;13.424;2023-04-22T04:38:54;10.20;99.90
8676;DHT22;4375;52.486;13.424;2023-04-22T04:41:20;10.20;99.90
8676;DHT22;4375;52.486;13.424;2023-04-22T04:43:46;10.10;99.90
8676;DHT22;4375;52.486;13.424;2023-04-22T04:46:12;10.10;99.90
8676;DHT22;4375;52.486;13.424;2023-04-22T04:48:39;10.10;99.90
8676;DHT22;4375;52.486;13.424;2023-04-22T04:51:06;10.00;99.90
8676;DHT22;4375;52.486;13.424;2023-04-22T04:53:32;10.00;99.90
8676;DHT22;4375;52.486;13.424;2023-04-22T04:55:58;10.00;99.90
8676;DHT22;4375;52.486;13.424;2023-04-22T04:58:23;10.00;99.90
8676;DHT22;4375;52.486;13.424;2023-04-22T05:00:49;10.00;99.90
8676;DHT22;4375;52.486;13.424;2023-04-22T05:03:15;10.00;99.90
8676;DHT22;4375;52.486;13.424;2023-04-22T05:05:41;10.10;99.90
8676;DHT22;4375;52.486;13.424;2023-04-22T05:08:07;10.10;99.90
8676;DHT22;4375;52.486;13.424;2023-04-22T05:10:32;10.20;99.90
8676;DHT22;4375;52.486;13.424;2023-04-22T05:12:58;10.20;99.90
8676;DHT22;4375;52.486;13.424;2023-04-22T05:15:24;10.20;99.90
8676;DHT22;4375;52.486;13.424;2023-04-22T05:17:49;10.20;99.90
8676;DHT22;4375;52.486;13.424;2023-04-22T05:20:15;10.30;99.90
8676;DHT22;4375;52.486;13.424;2023-04-22T05:22:40;10.30;99.90
8676;DHT22;4375;52.486;13.424;2023-04-22T05:25:07;10.30;99.90
8676;DHT22;4375;52.486;13.424;2023-04-22T05:27:33;10.40;99.90
8676;DHT22;4375;52.486;13.424;2023-04-22T05:29:59;10.40;99.90
8676;DHT22;4375;52.486;13.424;2023-04-22T05:32:25;10.40;99.90
8676;DHT22;4375;52.486;13.424;2023-04-22T05:34:51;10.40;99.90
8676;DHT22;4375;52.486;13.424;2023-04-22T05:37:16;10.40;99.90
8676;DHT22;4375;52.486;13.424;2023-04-22T05:39:42;10.60;99.90
8676;DHT22;4375;52.486;13.424;2023-04-22T05:42:07;10.60;99.90
8676;DHT22;4375;52.486;13.424;2023-04-22T05:44:33;10.60;99.90
8676;DHT22;4375;52.486;13.424;2023-04-22T05:46:59;10.60;99.90
8676;DHT22;4375;52.486;13.424;2023-04-22T05:49:24;10.70;99.90
8676;DHT22;4375;52.486;13.424;2023-04-22T05:51:50;10.70;99.90
8676;DHT22;4375;52.486;13.424;2023-04-22T05:54:16;10.80;99.90
8676;DHT22;4375;52.486;13.424;2023-04-22T05:56:41;10.90;99.90
8676;DHT22;4375;52.486;13.424;2023-04-22T05:59:07;10.90;99.90
8676;DHT22;4375;52.486;13.424;2023-04-22T06:01:34;10.90;99.90
8676;DHT22;4375;52.486;13.424;2023-04-22T06:04:00;10.90;99.90
8676;DHT22;4375;52.486;13.424;2023-04-22T06:06:25;11.00;99.90
8676;DHT22;4375;52.486;13.424;2023-04-22T06:08:51;11.00;99.90
8676;DHT22;4375;52.486;13.424;2023-04-22T06:11:17;11.00;99.90
8676;DHT22;4375;52.486;13.424;2023-04-22T06:13:43;11.20;99.90
8676;DHT22;4375;52.486;13.424;2023-04-22T06:16:08;11.20;99.90
8676;DHT22;4375;52.486;13.424;2023-04-22T06:18:34;11.40;99.90
8676;DHT22;4375;52.486;13.424;2023-04-22T06:21:00;11.50;99.90
8676;DHT22;4375;52.486;13.424;2023-04-22T06:23:26;11.60;99.90
8676;DHT22;4375;52.486;13.424;2023-04-22T06:25:52;11.70;99.90
8676;DHT22;4375;52.486;13.424;2023-04-22T06:28:17;11.70;99.90
8676;DHT22;4375;52.486;13.424;2023-04-22T06:30:43;11.80;99.90
8676;DHT22;4375;52.486;13.424;2023-04-22T06:33:11;11.90;99.90
8676;DHT22;4375;52.486;13.424;2023-04-22T06:35:37;12.10;99.90
8676;DHT22;4375;52.486;13.424;2023-04-22T06:38:02;12.10;99.90
8676;DHT22;4375;52.486;13.424;2023-04-22T06:40:28;12.30;99.90
8676;DHT22;4375;52.486;13.424;2023-04-22T06:42:53;12.40;99.90
8676;DHT22;4375;52.486;13.424;2023-04-22T06:45:19;12.50;99.90
8676;DHT22;4375;52.486;13.424;2023-04-22T06:47:45;12.60;99.90
8676;DHT22;4375;52.486;13.424;2023-04-22T06:50:10;12.70;99.90
8676;DHT22;4375;52.486;13.424;2023-04-22T06:52:36;12.80;99.90
8676;DHT22;4375;52.486;13.424;2023-04-22T06:55:02;12.90;99.90
8676;DHT22;4375;52.486;13.424;2023-04-22T06:57:29;12.90;99.90
8676;DHT22;4375;52.486;13.424;2023-04-22T06:59:55;13.00;99.90
8676;DHT22;4375;52.486;13.424;2023-04-22T07:02:21;13.10;99.90
8676;DHT22;4375;52.486;13.424;2023-04-22T07:04:46;13.20;99.90
8676;DHT22;4375;52.486;13.424;2023-04-22T07:07:12;13.30;99.90
8676;DHT22;4375;52.486;13.424;2023-04-22T07:09:38;13.50;99.90
8676;DHT22;4375;52.486;13.424;2023-04-22T07:12:04;13.60;99.90
8676;DHT22;4375;52.486;13.424;2023-04-22T07:14:29;13.60;99.90
8676;DHT22;4375;52.486;13.424;2023-04-22T07:16:56;13.70;99.90
8676;DHT22;4375;52.486;13.424;2023-04-22T07:19:21;13.90;99.90
8676;DHT22;4375;52.486;13.424;2023-04-22T07:21:47;14.00;99.90
8676;DHT22;4375;52.486;13.424;2023-04-22T07:24:12;14.10;99.90
8676;DHT22;4375;52.486;13.424;2023-04-22T07:26:43;14.20;99.90
8676;DHT22;4375;52.486;13.424;2023-04-22T07:29:09;14.40;99.90
8676;DHT22;4375;52.486;13.424;2023-04-22T07:31:37;14.60;99.90
8676;DHT22;4375;52.486;13.424;2023-04-22T07:34:03;14.70;99.90
8676;DHT22;4375;52.486;13.424;2023-04-22T07:36:28;14.80;99.90
8676;DHT22;4375;52.486;13.424;2023-04-22T07:38:56;14.90;99.90
8676;DHT22;4375;52.486;13.424;2023-04-22T07:41:22;14.90;99.90
8676;DHT22;4375;52.486;13.424;2023-04-22T07:43:47;15.50;99.90
8676;DHT22;4375;52.486;13.424;2023-04-22T07:46:13;17.30;99.90
8676;DHT22;4375;52.486;13.424;2023-04-22T07:48:38;18.40;99.90
8676;DHT22;4375;52.486;13.424;2023-04-22T07:51:04;19.80;99.90
8676;DHT22;4375;52.486;13.424;2023-04-22T07:53:30;20.40;99.20
8676;DHT22;4375;52.486;13.424;2023-04-22T07:55:55;21.70;98.40
8676;DHT22;4375;52.486;13.424;2023-04-22T07:58:21;21.90;95.50
8676;DHT22;4375;52.486;13.424;2023-04-22T08:00:47;23.10;94.20
8676;DHT22;4375;52.486;13.424;2023-04-22T08:03:12;23.80;91.00
8676;DHT22;4375;52.486;13.424;2023-04-22T08:05:38;23.60;90.00
8676;DHT22;4375;52.486;13.424;2023-04-22T08:08:04;23.50;87.40
8676;DHT22;4375;52.486;13.424;2023-04-22T08:10:30;23.20;86.70
8676;DHT22;4375;52.486;13.424;2023-04-22T08:12:55;24.30;85.80
8676;DHT22;4375;52.486;13.424;2023-04-22T08:15:21;24.00;83.80
8676;DHT22;4375;52.486;13.424;2023-04-22T08:17:47;25.00;82.20
8676;DHT22;4375;52.486;13.424;2023-04-22T08:20:14;25.10;80.40
8676;DHT22;4375;52.486;13.424;2023-04-22T08:22:40;25.10;78.70
8676;DHT22;4375;52.486;13.424;2023-04-22T08:25:10;25.10;78.30
8676;DHT22;4375;52.486;13.424;2023-04-22T08:27:36;26.10;76.40
8676;DHT22;4375;52.486;13.424;2023-04-22T08:30:02;25.70;72.80
8676;DHT22;4375;52.486;13.424;2023-04-22T08:32:28;25.60;73.30
8676;DHT22;4375;52.486;13.424;2023-04-22T08:34:54;26.10;72.80
8676;DHT22;4375;52.486;13.424;2023-04-22T08:37:19;25.90;72.90
8676;DHT22;4375;52.486;13.424;2023-04-22T08:39:45;26.40;70.90
8676;DHT22;4375;52.486;13.424;2023-04-22T08:42:11;27.40;70.40
8676;DHT22;4375;52.486;13.424;2023-04-22T08:44:38;27.30;66.40
8676;DHT22;4375;52.486;13.424;2023-04-22T08:47:04;26.80;66.50
8676;DHT22;4375;52.486;13.424;2023-04-22T08:49:30;27.00;65.60
8676;DHT22;4375;52.486;13.424;2023-04-22T08:51:56;26.80;64.80
8676;DHT22;4375;52.486;13.424;2023-04-22T08:54:24;27.00;63.90
8676;DHT22;4375;52.486;13.424;2023-04-22T08:56:50;25.10;65.40
8676;DHT22;4375;52.486;13.424;2023-04-22T08:59:16;26.00;66.10
8676;DHT22;4375;52.486;13.424;2023-04-22T09:01:43;25.70;66.30
8676;DHT22;4375;52.486;13.424;2023-04-22T09:04:10;26.20;64.50
8676;DHT22;4375;52.486;13.424;2023-04-22T09:06:38;27.00;63.20
8676;DHT22;4375;52.486;13.424;2023-04-22T09:09:04;26.50;62.70
8676;DHT22;4375;52.486;13.424;2023-04-22T09:11:31;26.20;64.00
8676;DHT22;4375;52.486;13.424;2023-04-22T09:13:57;26.00;64.00
8676;DHT22;4375;52.486;13.424;2023-04-22T09:16:22;25.50;64.90
8676;DHT22;4375;52.486;13.424;2023-04-22T09:18:49;25.90;65.00
8676;DHT22;4375;52.486;13.424;2023-04-22T09:21:15;25.60;64.80
8676;DHT22;4375;52.486;13.424;2023-04-22T09:23:52;25.90;64.80
8676;DHT22;4375;52.486;13.424;2023-04-22T09:26:23;25.30;65.00
8676;DHT22;4375;52.486;13.424;2023-04-22T09:28:50;25.20;66.00
8676;DHT22;4375;52.486;13.424;2023-04-22T09:31:16;24.60;66.50
8676;DHT22;4375;52.486;13.424;2023-04-22T09:33:47;24.10;68.00
8676;DHT22;4375;52.486;13.424;2023-04-22T09:36:13;23.10;68.40
8676;DHT22;4375;52.486;13.424;2023-04-22T09:38:38;22.60;70.20
8676;DHT22;4375;52.486;13.424;2023-04-22T09:41:10;22.00;71.60
8676;DHT22;4375;52.486;13.424;2023-04-22T09:43:37;21.90;72.40
8676;DHT22;4375;52.486;13.424;2023-04-22T09:46:03;21.50;72.20
8676;DHT22;4375;52.486;13.424;2023-04-22T09:48:29;21.40;73.20
8676;DHT22;4375;52.486;13.424;2023-04-22T09:50:54;21.40;74.10
8676;DHT22;4375;52.486;13.424;2023-04-22T09:53:20;21.70;73.90
8676;DHT22;4375;52.486;13.424;2023-04-22T09:55:49;21.50;73.20
8676;DHT22;4375;52.486;13.424;2023-04-22T09:58:20;21.50;74.20
8676;DHT22;4375;52.486;13.424;2023-04-22T10:00:54;21.40;74.30
8676;DHT22;4375;52.486;13.424;2023-04-22T10:03:20;21.30;75.00
8676;DHT22;4375;52.486;13.424;2023-04-22T10:05:46;21.40;74.60
8676;DHT22;4375;52.486;13.424;2023-04-22T10:08:13;21.40;74.20
8676;DHT22;4375;52.486;13.424;2023-04-22T10:10:40;21.50;75.50
8676;DHT22;4375;52.486;13.424;2023-04-22T10:13:06;21.30;74.60
8676;DHT22;4375;52.486;13.424;2023-04-22T10:15:34;21.10;74.60
8676;DHT22;4375;52.486;13.424;2023-04-22T10:18:06;21.10;74.50
8676;DHT22;4375;52.486;13.424;2023-04-22T10:20:35;21.10;74.80
8676;DHT22;4375;52.486;13.424;2023-04-22T10:23:12;21.20;74.50
8676;DHT22;4375;52.486;13.424;2023-04-22T10:25:38;21.00;73.80
8676;DHT22;4375;52.486;13.424;2023-04-22T10:28:06;21.00;72.00
8676;DHT22;4375;52.486;13.424;2023-04-22T10:30:36;21.00;72.90
8676;DHT22;4375;52.486;13.424;2023-04-22T10:41:28;20.80;71.60
8676;DHT22;4375;52.486;13.424;2023-04-22T10:43:56;20.70;71.30
8676;DHT22;4375;52.486;13.424;2023-04-22T10:49:12;20.90;71.60
8676;DHT22;4375;52.486;13.424;2023-04-22T10:59:45;20.80;69.90
8676;DHT22;4375;52.486;13.424;2023-04-22T11:02:13;20.80;68.50
8676;DHT22;4375;52.486;13.424;2023-04-22T11:04:39;21.10;67.40
8676;DHT22;4375;52.486;13.424;2023-04-22T11:15:11;21.10;69.50
8676;DHT22;4375;52.486;13.424;2023-04-22T11:17:38;20.90;68.80
8676;DHT22;4375;52.486;13.424;2023-04-22T11:20:05;20.80;68.70
8676;DHT22;4375;52.486;13.424;2023-04-22T11:22:36;20.90;68.40
8676;DHT22;4375;52.486;13.424;2023-04-22T11:25:03;21.00;68.10
8676;DHT22;4375;52.486;13.424;2023-04-22T11:27:30;21.00;68.80
8676;DHT22;4375;52.486;13.424;2023-04-22T11:32:36;20.80;68.70
8676;DHT22;4375;52.486;13.424;2023-04-22T11:35:07;20.70;69.60
8676;DHT22;4375;52.486;13.424;2023-04-22T11:40:32;20.80;71.10
8676;DHT22;4375;52.486;13.424;2023-04-22T11:43:00;20.90;69.60
8676;DHT22;4375;52.486;13.424;2023-04-22T11:45:27;20.90;69.70
8676;DHT22;4375;52.486;13.424;2023-04-22T11:47:53;21.00;70.00
8676;DHT22;4375;52.486;13.424;2023-04-22T11:50:27;21.00;68.30
8676;DHT22;4375;52.486;13.424;2023-04-22T11:52:59;21.10;66.80
8676;DHT22;4375;52.486;13.424;2023-04-22T11:55:33;21.10;65.40
8676;DHT22;4375;52.486;13.424;2023-04-22T11:58:04;21.10;66.30
8676;DHT22;4375;52.486;13.424;2023-04-22T12:00:32;21.00;68.00
8676;DHT22;4375;52.486;13.424;2023-04-22T12:03:00;20.90;68.70
8676;DHT22;4375;52.486;13.424;2023-04-22T12:05:37;20.90;69.40
8676;DHT22;4375;52.486;13.424;2023-04-22T12:08:10;21.00;69.50
8676;DHT22;4375;52.486;13.424;2023-04-22T12:10:43;21.20;67.70
8676;DHT22;4375;52.486;13.424;2023-04-22T12:13:19;21.10;66.60
8676;DHT22;4375;52.486;13.424;2023-04-22T12:15:46;21.20;66.20
8676;DHT22;4375;52.486;13.424;2023-04-22T12:18:11;21.10;67.80
8676;DHT22;4375;52.486;13.424;2023-04-22T12:20:38;21.20;68.40
8676;DHT22;4375;52.486;13.424;2023-04-22T12:23:05;21.10;68.80
8676;DHT22;4375;52.486;13.424;2023-04-22T12:25:35;21.10;69.50
8676;DHT22;4375;52.486;13.424;2023-04-22T12:28:01;21.00;68.90
8676;DHT22;4375;52.486;13.424;2023-04-22T12:30:27;21.10;68.30
8676;DHT22;4375;52.486;13.424;2023-04-22T12:32:52;21.00;67.90
8676;DHT22;4375;52.486;13.424;2023-04-22T12:35:18;21.10;67.40
8676;DHT22;4375;52.486;13.424;2023-04-22T12:37:44;21.10;65.80
8676;DHT22;4375;52.486;13.424;2023-04-22T12:40:09;21.10;66.70
8676;DHT22;4375;52.486;13.424;2023-04-22T12:42:35;21.20;67.30
8676;DHT22;4375;52.486;13.424;2023-04-22T12:45:01;21.20;67.00
8676;DHT22;4375;52.486;13.424;2023-04-22T12:47:27;21.20;67.10
8676;DHT22;4375;52.486;13.424;2023-04-22T12:49:53;21.20;65.10
8676;DHT22;4375;52.486;13.424;2023-04-22T12:52:18;21.20;64.90
8676;DHT22;4375;52.486;13.424;2023-04-22T12:54:44;21.40;65.20
8676;DHT22;4375;52.486;13.424;2023-04-22T12:57:10;21.30;63.30
8676;DHT22;4375;52.486;13.424;2023-04-22T12:59:36;21.10;63.80
8676;DHT22;4375;52.486;13.424;2023-04-22T13:02:02;21.10;64.00
8676;DHT22;4375;52.486;13.424;2023-04-22T13:04:27;21.10;62.80
8676;DHT22;4375;52.486;13.424;2023-04-22T13:06:53;21.20;62.60
8676;DHT22;4375;52.486;13.424;2023-04-22T13:09:24;21.10;62.80
8676;DHT22;4375;52.486;13.424;2023-04-22T13:11:51;21.10;63.40
8676;DHT22;4375;52.486;13.424;2023-04-22T13:14:17;21.00;64.10
8676;DHT22;4375;52.486;13.424;2023-04-22T13:16:43;21.00;63.50
8676;DHT22;4375;52.486;13.424;2023-04-22T13:19:09;21.00;64.30
8676;DHT22;4375;52.486;13.424;2023-04-22T13:21:34;21.00;65.40
8676;DHT22;4375;52.486;13.424;2023-04-22T13:24:00;21.10;65.90
8676;DHT22;4375;52.486;13.424;2023-04-22T13:26:26;21.10;65.60
8676;DHT22;4375;52.486;13.424;2023-04-22T13:28:52;21.10;66.60
8676;DHT22;4375;52.486;13.424;2023-04-22T13:31:17;21.10;67.10
8676;DHT22;4375;52.486;13.424;2023-04-22T13:33:43;21.10;67.90
8676;DHT22;4375;52.486;13.424;2023-04-22T13:36:11;21.20;68.20
8676;DHT22;4375;52.486;13.424;2023-04-22T13:38:36;21.30;68.00
8676;DHT22;4375;52.486;13.424;2023-04-22T13:41:02;21.30;68.00
8676;DHT22;4375;52.486;13.424;2023-04-22T13:43:27;21.30;68.40
8676;DHT22;4375;52.486;13.424;2023-04-22T13:45:53;21.30;67.90
8676;DHT22;4375;52.486;13.424;2023-04-22T13:48:19;21.20;68.20
8676;DHT22;4375;52.486;13.424;2023-04-22T13:50:44;21.30;68.70
8676;DHT22;4375;52.486;13.424;2023-04-22T13:53:11;21.20;67.70
8676;DHT22;4375;52.486;13.424;2023-04-22T13:55:37;21.20;68.00
8676;DHT22;4375;52.486;13.424;2023-04-22T13:58:03;21.20;67.90
8676;DHT22;4375;52.486;13.424;2023-04-22T14:00:33;21.30;68.30
8676;DHT22;4375;52.486;13.424;2023-04-22T14:02:59;21.30;68.00
8676;DHT22;4375;52.486;13.424;2023-04-22T14:05:25;21.20;68.00
8676;DHT22;4375;52.486;13.424;2023-04-22T14:07:52;21.30;67.50
8676;DHT22;4375;52.486;13.424;2023-04-22T14:10:17;21.20;66.50
8676;DHT22;4375;52.486;13.424;2023-04-22T14:12:45;21.20;67.00
8676;DHT22;4375;52.486;13.424;2023-04-22T14:15:11;21.20;66.40
8676;DHT22;4375;52.486;13.424;2023-04-22T14:17:38;21.20;66.60
8676;DHT22;4375;52.486;13.424;2023-04-22T14:20:04;21.20;67.00
8676;DHT22;4375;52.486;13.424;2023-04-22T14:22:30;21.20;66.40
8676;DHT22;4375;52.486;13.424;2023-04-22T14:24:56;21.30;66.20
8676;DHT22;4375;52.486;13.424;2023-04-22T14:27:21;21.30;66.10
8676;DHT22;4375;52.486;13.424;2023-04-22T14:29:47;21.30;65.80
8676;DHT22;4375;52.486;13.424;2023-04-22T14:32:17;21.30;66.00
8676;DHT22;4375;52.486;13.424;2023-04-22T14:34:43;21.30;66.70
8676;DHT22;4375;52.486;13.424;2023-04-22T14:37:09;21.30;66.90
8676;DHT22;4375;52.486;13.424;2023-04-22T14:39:35;21.30;66.40
8676;DHT22;4375;52.486;13.424;2023-04-22T14:42:01;21.40;67.10
8676;DHT22;4375;52.486;13.424;2023-04-22T14:44:28;21.30;67.10
8676;DHT22;4375;52.486;13.424;2023-04-22T14:46:53;21.40;67.90
8676;DHT22;4375;52.486;13.424;2023-04-22T14:49:19;21.40;67.70
8676;DHT22;4375;52.486;13.424;2023-04-22T14:51:45;21.40;68.10
8676;DHT22;4375;52.486;13.424;2023-04-22T14:54:11;21.40;67.80
8676;DHT22;4375;52.486;13.424;2023-04-22T14:56:37;21.40;67.60
8676;DHT22;4375;52.486;13.424;2023-04-22T14:59:02;21.30;67.30
8676;DHT22;4375;52.486;13.424;2023-04-22T15:01:28;21.30;67.30
8676;DHT22;4375;52.486;13.424;2023-04-22T15:03:53;21.40;67.80
8676;DHT22;4375;52.486;13.424;2023-04-22T15:06:21;21.30;67.40
8676;DHT22;4375;52.486;13.424;2023-04-22T15:08:47;21.20;66.90
8676;DHT22;4375;52.486;13.424;2023-04-22T15:11:16;21.20;67.00
8676;DHT22;4375;52.486;13.424;2023-04-22T15:13:42;21.20;67.40
8676;DHT22;4375;52.486;13.424;2023-04-22T15:16:07;21.20;67.10
8676;DHT22;4375;52.486;13.424;2023-04-22T15:18:33;21.30;67.00
8676;DHT22;4375;52.486;13.424;2023-04-22T15:20:59;21.30;66.70
8676;DHT22;4375;52.486;13.424;2023-04-22T15:23:24;21.30;66.10
8676;DHT22;4375;52.486;13.424;2023-04-22T15:25:50;21.30;65.40
8676;DHT22;4375;52.486;13.424;2023-04-22T15:28:16;21.20;66.00
8676;DHT22;4375;52.486;13.424;2023-04-22T15:30:42;21.20;66.90
8676;DHT22;4375;52.486;13.424;2023-04-22T15:33:08;21.10;65.80
8676;DHT22;4375;52.486;13.424;2023-04-22T15:35:33;21.10;66.20
8676;DHT22;4375;52.486;13.424;2023-04-22T15:37:59;21.20;66.00
8676;DHT22;4375;52.486;13.424;2023-04-22T15:40:27;21.10;66.60
8676;DHT22;4375;52.486;13.424;2023-04-22T15:42:52;21.00;66.20
8676;DHT22;4375;52.486;13.424;2023-04-22T15:45:18;21.10;66.40
8676;DHT22;4375;52.486;13.424;2023-04-22T15:47:45;21.10;65.70
8676;DHT22;4375;52.486;13.424;2023-04-22T15:50:11;21.00;65.50
8676;DHT22;4375;52.486;13.424;2023-04-22T15:52:37;21.00;66.10
8676;DHT22;4375;52.486;13.424;2023-04-22T15:55:04;21.00;66.30
8676;DHT22;4375;52.486;13.424;2023-04-22T15:57:29;20.90;65.80
8676;DHT22;4375;52.486;13.424;2023-04-22T16:00:05;21.00;65.30
8676;DHT22;4375;52.486;13.424;2023-04-22T16:02:32;20.90;64.80
8676;DHT22;4375;52.486;13.424;2023-04-22T16:04:58;20.90;64.90
8676;DHT22;4375;52.486;13.424;2023-04-22T16:07:24;20.80;65.20
8676;DHT22;4375;52.486;13.424;2023-04-22T16:09:49;20.80;65.60
8676;DHT22;4375;52.486;13.424;2023-04-22T16:12:15;20.80;64.90